Time;durP1;ratioP1;P1;durP2;ratioP2;P2;SDS_P1;SDS_P2;PMS_P1;PMS_P2;Temp;Humidity;BMP_temperature;BMP_pressure;BME280_temperature;BME280_humidity;BME280_pressure;Samples;Min_cycle;Max_cycle;Signal;HPM_P1;HPM_P2
2021/10/19 00:01:55;;;;;;;37.25;19.55;;;;;;;5.59;99.50;98268.22;5043584;28;20045;-72
2021/10/19 00:04:23;;;;;;;26.55;17.35;;;;;;;5.58;100.00;98263.91;5039571;28;20111;-72
2021/10/19 00:06:51;;;;;;;28.38;18.45;;;;;;;5.59;99.66;98258.75;5043548;28;20131;-72
2021/10/19 00:09:18;;;;;;;28.58;15.90;;;;;;;5.63;99.25;98252.72;5045298;28;20131;-72
2021/10/19 00:11:46;;;;;;;29.15;17.75;;;;;;;5.61;98.90;98251.00;5039958;28;20087;-72
2021/10/19 00:14:13;;;;;;;33.30;17.02;;;;;;;5.72;98.40;98259.44;5046558;28;20041;-72
2021/10/19 00:16:40;;;;;;;35.20;20.85;;;;;;;5.60;98.38;98254.44;5044434;28;20214;-73
2021/10/19 00:19:08;;;;;;;31.63;17.25;;;;;;;5.75;98.68;98249.13;5042260;28;20048;-72
2021/10/19 00:21:35;;;;;;;27.10;16.75;;;;;;;5.85;97.98;98255.84;5042554;28;20059;-72
2021/10/19 00:24:03;;;;;;;24.55;14.23;;;;;;;5.80;97.02;98260.22;5043893;28;20091;-72
2021/10/19 00:26:30;;;;;;;25.05;16.08;;;;;;;5.88;96.72;98265.25;5046276;28;20075;-72
2021/10/19 00:28:57;;;;;;;29.67;16.50;;;;;;;5.98;95.57;98261.75;5040539;28;20144;-72
2021/10/19 00:31:25;;;;;;;23.83;15.00;;;;;;;6.03;95.95;98256.53;5043639;28;20720;-72
2021/10/19 00:33:53;;;;;;;21.08;13.13;;;;;;;5.96;96.09;98260.91;5038399;28;20048;-72
2021/10/19 00:36:21;;;;;;;27.90;17.08;;;;;;;6.12;95.69;98261.56;5043833;28;20099;-72
2021/10/19 00:38:48;;;;;;;29.40;17.55;;;;;;;6.12;95.91;98256.41;5045362;28;20041;-72
2021/10/19 00:41:17;;;;;;;24.58;15.18;;;;;;;6.21;95.59;98251.13;5044290;28;20498;-72
2021/10/19 00:43:45;;;;;;;22.33;13.00;;;;;;;6.21;95.45;98240.81;5043127;28;20096;-72
2021/10/19 00:46:14;;;;;;;27.08;17.25;;;;;;;5.71;96.44;98251.75;5045920;28;20178;-72
2021/10/19 00:48:46;;;;;;;28.63;16.85;;;;;;;5.29;98.67;98259.09;5046010;28;20052;-72
2021/10/19 00:51:15;;;;;;;28.13;16.15;;;;;;;5.11;100.00;98268.72;5044294;28;20137;-71
2021/10/19 00:53:42;;;;;;;25.77;14.52;;;;;;;5.27;100.00;98265.97;5044939;28;20156;-72
2021/10/19 00:56:11;;;;;;;33.97;18.73;;;;;;;5.13;100.00;98251.53;5042924;28;20126;-72
2021/10/19 00:58:39;;;;;;;27.15;16.77;;;;;;;5.17;100.00;98253.19;5045692;28;20071;-72
2021/10/19 01:01:07;;;;;;;31.40;17.38;;;;;;;5.19;100.00;98248.88;5045442;28;20125;-72
2021/10/19 01:03:35;;;;;;;29.38;16.77;;;;;;;5.06;100.00;98249.03;5047252;28;20082;-72
2021/10/19 01:06:05;;;;;;;28.30;16.25;;;;;;;5.18;100.00;98246.34;5046088;28;20084;-72
2021/10/19 01:08:32;;;;;;;30.70;18.75;;;;;;;5.36;100.00;98238.44;5035589;28;20153;-72
2021/10/19 01:11:00;;;;;;;27.50;15.68;;;;;;;5.60;100.00;98236.44;5043175;28;20212;-72
2021/10/19 01:13:27;;;;;;;28.83;17.80;;;;;;;5.58;100.00;98238.16;5037283;28;20501;-72
2021/10/19 01:16:09;;;;;;;26.88;17.38;;;;;;;5.60;100.00;98236.44;5038469;28;20509;-72
2021/10/19 01:18:37;;;;;;;30.77;17.50;;;;;;;5.72;100.00;98232.84;5037224;28;20041;-72
2021/10/19 01:21:06;;;;;;;27.42;16.67;;;;;;;5.84;100.00;98230.13;5036118;28;20132;-72
2021/10/19 01:23:34;;;;;;;25.25;16.77;;;;;;;6.15;100.00;98234.88;5039350;28;20059;-72
2021/10/19 01:26:03;;;;;;;26.65;16.45;;;;;;;6.22;100.00;98236.50;5044327;28;20132;-72
2021/10/19 01:28:32;;;;;;;27.55;15.68;;;;;;;6.37;100.00;98235.44;5033613;28;20470;-72
2021/10/19 01:31:00;;;;;;;26.40;16.38;;;;;;;6.49;100.00;98232.66;5039352;28;20056;-72
2021/10/19 01:33:29;;;;;;;29.98;18.08;;;;;;;6.56;100.00;98229.09;5038513;28;20050;-72
2021/10/19 01:35:57;;;;;;;29.55;16.75;;;;;;;6.62;100.00;98225.56;5038935;28;20053;-72
2021/10/19 01:38:26;;;;;;;28.25;17.15;;;;;;;6.61;99.95;98231.59;5034462;28;20041;-72
2021/10/19 01:40:55;;;;;;;27.27;15.70;;;;;;;6.73;99.53;98222.78;5033954;28;20088;-72
2021/10/19 01:43:24;;;;;;;24.23;15.20;;;;;;;6.86;99.78;98214.81;5036022;28;20128;-72
2021/10/19 01:45:56;;;;;;;23.23;15.30;;;;;;;6.83;99.54;98220.03;5038790;28;20052;-72
2021/10/19 01:48:24;;;;;;;31.02;19.05;;;;;;;6.61;100.00;98226.44;5043336;28;20084;-72
2021/10/19 01:50:51;;;;;;;35.80;18.70;;;;;;;6.59;99.82;98215.28;5033303;28;20060;-72
2021/10/19 01:53:21;;;;;;;30.35;18.55;;;;;;;6.44;100.00;98218.97;5040628;28;20156;-72
2021/10/19 01:55:49;;;;;;;31.00;18.45;;;;;;;6.46;100.00;98217.22;5040049;28;20045;-72
2021/10/19 01:58:22;;;;;;;30.88;18.60;;;;;;;6.45;100.00;98208.66;5045485;28;20055;-72
2021/10/19 02:00:51;;;;;;;30.17;17.50;;;;;;;6.45;100.00;98206.06;5037726;28;20967;-72
2021/10/19 02:03:19;;;;;;;29.15;19.50;;;;;;;6.42;100.00;98207.84;5044991;28;20619;-72
2021/10/19 02:05:47;;;;;;;33.30;19.05;;;;;;;6.53;100.00;98210.25;5035792;28;20059;-72
2021/10/19 02:08:14;;;;;;;25.38;16.17;;;;;;;6.75;100.00;98216.75;5038215;28;20127;-72
2021/10/19 02:10:42;;;;;;;27.73;15.55;;;;;;;6.97;100.00;98214.63;5038521;28;20144;-72
2021/10/19 02:13:10;;;;;;;26.60;16.23;;;;;;;7.08;100.00;98206.69;5044575;28;20072;-72
2021/10/19 02:15:37;;;;;;;23.92;14.23;;;;;;;7.20;99.51;98203.03;5044565;28;20128;-72
2021/10/19 02:18:06;;;;;;;25.45;15.23;;;;;;;7.27;99.87;98207.19;5044328;28;20120;-72
2021/10/19 02:20:34;;;;;;;22.42;15.95;;;;;;;7.45;99.39;98204.25;5041455;28;20410;-72
2021/10/19 02:23:02;;;;;;;21.13;14.15;;;;;;;7.65;98.69;98195.25;5044901;28;20155;-72
2021/10/19 02:25:29;;;;;;;18.85;12.63;;;;;;;7.86;97.79;98191.34;5043057;28;20139;-72
2021/10/19 02:27:57;;;;;;;18.88;12.43;;;;;;;8.01;97.08;98195.34;5039168;28;20068;-72
2021/10/19 02:30:26;;;;;;;18.70;11.65;;;;;;;8.09;95.84;98191.69;5044866;28;20056;-72
2021/10/19 02:32:54;;;;;;;21.02;13.27;;;;;;;8.05;96.12;98186.63;5045545;28;20136;-72
2021/10/19 02:35:21;;;;;;;21.80;13.52;;;;;;;8.10;96.10;98185.66;5036033;28;20049;-72
2021/10/19 02:37:51;;;;;;;18.38;10.95;;;;;;;8.35;94.93;98182.50;5034922;28;20136;-72
2021/10/19 02:40:18;;;;;;;18.55;11.95;;;;;;;8.36;94.98;98172.09;5044471;28;20144;-72
2021/10/19 02:42:46;;;;;;;14.38;9.80;;;;;;;8.58;93.79;98174.19;5035190;28;20196;-72
2021/10/19 02:45:13;;;;;;;16.17;10.30;;;;;;;8.62;94.09;98175.81;5037355;28;20049;-72
2021/10/19 02:47:41;;;;;;;14.98;10.13;;;;;;;8.66;93.93;98167.06;5046172;28;20514;-72
2021/10/19 02:50:10;;;;;;;14.27;9.93;;;;;;;8.68;93.88;98172.22;5045118;28;20124;-72
2021/10/19 02:52:37;;;;;;;18.35;10.52;;;;;;;8.68;93.81;98177.41;5048077;28;20045;-72
2021/10/19 02:55:07;;;;;;;19.40;10.00;;;;;;;8.62;94.75;98174.94;5045521;28;20099;-72
2021/10/19 02:57:34;;;;;;;14.10;9.20;;;;;;;8.75;93.87;98171.16;5033308;28;20180;-72
2021/10/19 03:00:02;;;;;;;15.02;9.95;;;;;;;8.73;93.42;98176.38;5046165;28;20052;-72
2021/10/19 03:02:30;;;;;;;17.52;10.52;;;;;;;8.72;93.74;98184.19;5048270;28;20076;-72
2021/10/19 03:04:57;;;;;;;17.50;10.00;;;;;;;8.88;92.88;98182.91;5043659;28;20045;-72
2021/10/19 03:07:25;;;;;;;14.98;9.68;;;;;;;8.89;92.51;98176.00;5048599;28;20071;-72
2021/10/19 03:09:52;;;;;;;17.27;10.23;;;;;;;8.89;92.95;98165.63;5041664;28;20141;-72
2021/10/19 03:12:19;;;;;;;15.70;10.05;;;;;;;8.84;92.81;98170.94;5043961;28;20159;-72
2021/10/19 03:14:46;;;;;;;14.93;10.15;;;;;;;8.76;93.74;98178.06;5051120;28;20049;-72
2021/10/19 03:17:13;;;;;;;14.52;9.68;;;9.80;99.90;;;8.87;93.58;98190.72;5047992;28;20140;-72
2021/10/19 03:19:40;;;;;;;17.30;10.23;;;9.80;99.90;;;8.89;93.46;98188.94;5038833;28;20140;-72
2021/10/19 03:22:07;;;;;;;16.58;10.77;;;9.80;99.90;;;8.89;93.42;98194.09;5046054;28;20128;-72
2021/10/19 03:24:34;;;;;;;17.73;10.68;;;9.70;99.90;;;8.86;94.57;98182.09;5041088;28;20037;-72
2021/10/19 03:27:01;;;;;;;16.35;9.55;;;9.70;99.90;;;8.81;94.69;98181.38;5041210;28;20152;-71
2021/10/19 03:29:28;;;;;;;14.73;9.02;;;9.60;99.90;;;8.86;93.76;98197.63;5047034;28;20048;-72
2021/10/19 03:31:55;;;;;;;14.20;9.13;;;9.60;99.90;;;8.78;94.09;98202.13;5047729;28;20540;-72
2021/10/19 03:34:22;;;;;;;19.17;10.75;;;9.70;99.90;;;8.81;94.08;98212.44;5036137;28;20119;-72
2021/10/19 03:36:49;;;;;;;16.17;9.57;;;9.70;99.90;;;8.90;94.37;98196.66;5039100;28;20056;-72
2021/10/19 03:39:16;;;;;;;13.48;9.55;;;9.60;99.90;;;8.87;94.42;98196.75;5047347;28;20072;-72
2021/10/19 03:41:43;;;;;;;13.75;9.75;;;9.60;99.90;;;8.82;94.35;98206.34;5042795;28;20532;-71
2021/10/19 03:44:10;;;;;;;16.80;10.45;;;9.60;99.90;;;8.77;95.26;98203.88;5047954;28;20149;-72
2021/10/19 03:46:37;;;;;;;16.98;11.07;;;9.60;99.90;;;8.72;96.06;98204.91;5043258;28;20159;-71
2021/10/19 03:49:04;;;;;;;14.38;9.40;;;9.50;99.90;;;8.71;96.64;98201.47;5042719;28;20107;-71
2021/10/19 03:51:31;;;;;;;17.23;10.40;;;9.60;99.90;;;8.70;97.32;98210.09;5040567;28;20152;-71
2021/10/19 03:53:58;;;;;;;15.25;10.57;;;9.60;99.90;;;8.71;97.65;98208.38;5042121;28;20091;-70
2021/10/19 03:56:25;;;;;;;16.85;11.00;;;9.50;99.90;;;8.74;98.25;98195.38;5047620;28;20080;-69
2021/10/19 03:58:53;;;;;;;18.38;11.63;;;9.50;99.90;;;8.72;98.80;98192.81;5042313;28;20128;-69
2021/10/19 04:01:21;;;;;;;17.27;12.85;;;9.50;99.90;;;8.74;99.31;98201.38;5036903;28;20430;-69
2021/10/19 04:03:49;;;;;;;17.13;11.63;;;9.60;99.90;;;8.79;99.34;98206.44;5039791;28;20041;-70
2021/10/19 04:06:16;;;;;;;19.92;12.63;;;9.60;99.90;;;8.81;99.49;98194.31;5047522;28;20120;-70
2021/10/19 04:08:43;;;;;;;19.02;11.95;;;9.60;99.90;;;8.92;98.91;98186.28;5043341;28;20132;-70
2021/10/19 04:11:10;;;;;;;17.77;12.35;;;9.60;99.90;;;8.86;99.20;98191.59;5044060;28;20091;-69
2021/10/19 04:13:37;;;;;;;16.15;10.98;;;9.60;99.90;;;8.90;99.44;98198.41;5040293;28;20068;-69
2021/10/19 04:16:04;;;;;;;23.08;14.43;;;9.70;99.90;;;8.83;99.81;98207.22;5034103;28;20103;-69
2021/10/19 04:18:31;;;;;;;20.90;13.57;;;9.70;99.90;;;8.79;100.00;98203.84;5042273;28;20065;-69
2021/10/19 04:20:58;;;;;;;24.35;14.20;;;9.70;99.90;;;8.87;99.86;98207.13;5042225;28;20516;-69
2021/10/19 04:23:25;;;;;;;19.83;13.20;;;9.70;99.90;;;8.89;99.90;98207.06;5043837;28;20041;-69
2021/10/19 04:25:53;;;;;;;22.38;14.43;;;9.70;99.90;;;8.85;100.00;98208.88;5035529;28;20478;-69
2021/10/19 04:28:20;;;;;;;20.02;13.20;;;9.70;99.90;;;8.77;100.00;98203.88;5037954;28;20055;-68
2021/10/19 04:30:47;;;;;;;20.98;14.68;;;9.70;99.90;;;8.82;100.00;98200.34;5047180;28;20072;-69
2021/10/19 04:33:14;;;;;;;23.00;15.52;;;9.60;99.90;;;8.74;100.00;98192.78;5043184;28;20056;-69
2021/10/19 04:35:41;;;;;;;24.50;15.60;;;9.60;99.90;;;8.71;100.00;98203.19;5036072;28;20481;-68
2021/10/19 04:38:08;;;;;;;21.48;15.52;;;9.60;99.90;;;8.74;100.00;98190.19;5041242;28;20164;-68
2021/10/19 04:40:36;;;;;;;23.85;15.57;;;9.60;99.90;;;8.73;100.00;98191.06;5040598;28;20443;-69
2021/10/19 04:43:03;;;;;;;24.13;14.93;;;9.60;99.90;;;8.87;100.00;98186.41;5036767;28;20068;-69
2021/10/19 04:45:30;;;;;;;22.15;16.50;;;9.60;99.90;;;8.90;100.00;98180.28;5040658;28;20166;-68
2021/10/19 04:48:01;;;;;;;25.35;17.38;;;9.60;99.90;;;8.84;100.00;98188.22;5038997;28;20045;-69
2021/10/19 04:50:29;;;;;;;22.77;15.43;;;9.60;99.90;;;8.85;100.00;98190.75;5043688;28;20132;-69
2021/10/19 04:52:56;;;;;;;28.38;18.38;;;9.70;99.90;;;8.85;100.00;98187.31;5043053;28;20049;-70
2021/10/19 04:55:23;;;;;;;27.42;17.50;;;9.70;99.90;;;8.81;100.00;98190.88;5040505;28;20052;-70
2021/10/19 04:57:50;;;;;;;24.80;16.58;;;9.70;99.90;;;8.87;100.00;98195.88;5031474;28;20095;-70
2021/10/19 05:00:17;;;;;;;24.13;16.67;;;9.70;99.90;;;8.93;100.00;98177.63;5039725;28;20037;-70
2021/10/19 05:02:49;;;;;;;24.50;16.23;;;9.70;99.90;;;8.93;100.00;98180.19;5047187;28;20128;-70
2021/10/19 05:05:18;;;;;;;24.65;17.05;;;9.70;99.90;;;8.97;100.00;98180.06;5038032;28;20569;-71
2021/10/19 05:07:45;;;;;;;26.08;18.05;;;9.70;99.90;;;9.01;100.00;98175.69;5040889;28;20068;-71
2021/10/19 05:10:12;;;;;;;25.98;17.63;;;9.70;99.90;;;9.00;100.00;98179.97;5036567;28;20084;-71
2021/10/19 05:12:39;;;;;;;23.35;17.10;;;9.80;99.90;;;9.04;100.00;98177.34;5042068;28;20069;-71
2021/10/19 05:15:07;;;;;;;25.63;16.67;;;9.80;99.90;;;9.05;100.00;98173.84;5039667;28;20113;-71
2021/10/19 05:17:35;;;;;;;28.38;19.08;;;9.80;99.90;;;9.05;100.00;98176.44;5035873;28;20127;-71
2021/10/19 05:20:04;;;;;;;31.42;20.77;;;9.80;99.90;;;9.02;100.00;98177.38;5047237;28;20090;-71
2021/10/19 05:22:31;;;;;;;29.10;17.63;;;9.80;99.90;;;9.07;100.00;98177.25;5045726;28;20131;-73
2021/10/19 05:24:58;;;;;;;31.25;20.75;;;9.90;99.90;;;9.00;100.00;98187.75;5042446;28;20072;-72
2021/10/19 05:27:25;;;;;;;24.23;17.25;;;9.90;99.90;;;9.10;100.00;98182.31;5039006;28;20144;-71
2021/10/19 05:29:52;;;;;;;26.27;16.95;;;9.90;99.90;;;9.11;100.00;98190.06;5047450;28;20127;-71
2021/10/19 05:32:19;;;;;;;31.25;19.85;;;9.90;99.90;;;9.15;100.00;98183.06;5041784;28;20087;-71
2021/10/19 05:34:46;;;;;;;26.52;18.50;;;9.90;99.90;;;9.09;100.00;98189.25;5036550;28;20195;-71
2021/10/19 05:37:13;;;;;;;28.90;19.13;;;9.90;99.90;;;9.10;100.00;98183.19;5043422;28;20076;-71
2021/10/19 05:39:41;;;;;;;22.55;15.32;;;10.00;99.90;;;9.07;100.00;98180.69;5038555;28;20103;-71
2021/10/19 05:42:08;;;;;;;30.95;19.63;;;10.00;99.90;;;9.19;100.00;98176.91;5032128;28;20136;-71
2021/10/19 05:44:35;;;;;;;21.92;14.90;;;10.00;99.90;;;9.16;100.00;98177.84;5040095;28;20480;-71
2021/10/19 05:47:02;;;;;;;32.90;17.88;;;10.00;99.90;;;9.21;100.00;98173.41;5038010;28;20121;-71
2021/10/19 05:49:29;;;;;;;23.42;15.30;;;10.00;99.90;;;9.25;100.00;98171.56;5043667;28;20045;-71
2021/10/19 05:51:56;;;;;;;21.58;14.38;;;10.00;99.90;;;9.27;100.00;98182.72;5042577;28;20147;-71
2021/10/19 05:54:25;;;;;;;28.58;18.23;;;10.00;99.90;;;9.28;100.00;98175.81;5048538;28;20148;-71
2021/10/19 05:56:53;;;;;;;22.15;15.68;;;10.00;99.90;;;9.22;100.00;98184.59;5044033;28;20479;-71
2021/10/19 05:59:21;;;;;;;28.35;19.15;;;10.00;99.90;;;9.26;100.00;98180.16;5043511;28;20494;-71
2021/10/19 06:01:49;;;;;;;21.80;15.50;;;10.00;99.90;;;9.23;100.00;98175.94;5043917;28;20042;-72
2021/10/19 06:04:16;;;;;;;37.15;21.02;;;10.00;99.90;;;9.24;100.00;98169.00;5038514;28;20052;-71
2021/10/19 06:06:59;;;;;;;21.95;14.27;;;10.00;99.90;;;9.25;100.00;98160.34;5047888;28;20046;-71
2021/10/19 06:09:28;;;;;;;21.58;15.27;;;10.10;99.90;;;9.30;100.00;98163.66;5040362;28;20524;-71
2021/10/19 06:11:55;;;;;;;20.58;14.60;;;10.10;99.90;;;9.33;100.00;98158.41;5049304;28;20119;-70
2021/10/19 06:14:24;;;;;;;17.67;12.13;;;10.10;99.90;;;9.35;100.00;98159.19;5047608;28;20478;-69
2021/10/19 06:16:51;;;;;;;17.92;13.13;;;10.10;99.90;;;9.41;100.00;98172.81;5050428;28;20422;-68
2021/10/19 06:19:19;;;;;;;17.20;12.13;;;10.10;99.90;;;9.39;100.00;98176.34;5042352;28;20612;-69
2021/10/19 06:21:46;;;;;;;17.55;11.20;;;10.10;99.90;;;9.37;100.00;98176.41;5045704;28;20124;-70
2021/10/19 06:24:14;;;;;;;15.98;11.60;;;10.20;99.90;;;9.41;100.00;98170.22;5049178;28;20140;-70
2021/10/19 06:26:41;;;;;;;18.92;13.00;;;10.20;99.90;;;9.50;100.00;98168.28;5046117;28;20069;-71
2021/10/19 06:29:12;;;;;;;18.08;12.40;;;10.20;99.90;;;9.62;100.00;98171.38;5042899;28;20424;-70
2021/10/19 06:31:41;;;;;;;13.43;10.40;;;10.30;99.90;;;9.56;100.00;98165.53;5043302;28;20047;-71
2021/10/19 06:34:09;;;;;;;17.90;12.48;;;10.30;99.90;;;9.60;100.00;98165.38;5042485;28;20049;-71
2021/10/19 06:36:36;;;;;;;21.77;15.15;;;10.30;99.90;;;9.61;100.00;98172.25;5045099;28;20123;-71
2021/10/19 06:39:04;;;;;;;20.42;13.52;;;10.40;99.90;;;9.65;100.00;98170.44;5037851;28;20115;-71
2021/10/19 06:41:31;;;;;;;18.30;11.85;;;10.40;99.90;;;9.65;100.00;98167.84;5038274;28;20149;-71
2021/10/19 06:43:59;;;;;;;19.05;12.20;;;10.40;99.90;;;9.65;100.00;98178.22;5044092;28;20072;-71
2021/10/19 06:46:46;;;;;;;15.02;10.27;;;10.50;99.90;;;9.68;100.00;98179.84;5044976;28;20044;-72
2021/10/19 06:49:13;;;;;;;12.23;8.80;;;10.50;99.90;;;9.76;100.00;98180.47;5047669;28;20053;-72
2021/10/19 06:51:40;;;;;;;11.95;8.45;;;10.50;99.90;;;9.81;100.00;98176.00;5045354;28;20509;-71
2021/10/19 06:54:08;;;;;;;16.52;10.13;;;10.60;99.90;;;9.81;100.00;98163.06;5039241;28;20136;-71
2021/10/19 06:56:35;;;;;;;13.02;9.13;;;10.60;99.90;;;9.92;100.00;98160.09;5036008;28;20163;-71
2021/10/19 06:59:02;;;;;;;15.52;9.82;;;10.60;99.90;;;9.90;100.00;98162.78;5044769;28;20088;-72
2021/10/19 07:01:29;;;;;;;12.85;9.35;;;10.70;99.90;;;9.91;100.00;98155.84;5043272;28;20124;-72
2021/10/19 07:03:56;;;;;;;15.60;10.60;;;10.70;99.90;;;9.98;100.00;98158.19;5046363;28;20497;-71
2021/10/19 07:06:24;;;;;;;20.38;12.68;;;10.80;99.90;;;9.99;100.00;98154.72;5049366;28;20071;-72
2021/10/19 07:08:53;;;;;;;22.98;14.38;;;10.80;99.90;;;10.01;100.00;98155.50;5049166;28;20080;-71
2021/10/19 07:11:25;;;;;;;32.40;18.45;;;10.80;99.90;;;10.12;100.00;98151.72;5044839;28;20072;-71
2021/10/19 07:13:53;;;;;;;30.13;18.33;;;10.90;99.90;;;10.10;100.00;98146.56;5038211;28;20095;-72
2021/10/19 07:16:20;;;;;;;27.88;17.83;;;10.90;99.90;;;10.15;100.00;98152.50;5041335;28;20191;-71
2021/10/19 07:18:48;;;;;;;24.65;15.77;;;11.00;99.90;;;10.23;100.00;98136.66;5045086;28;20037;-72
2021/10/19 07:21:15;;;;;;;33.45;19.30;;;11.00;99.90;;;10.31;100.00;98141.63;5046166;28;20051;-72
2021/10/19 07:23:42;;;;;;;30.45;18.55;;;11.10;99.90;;;10.31;100.00;98154.59;5039259;28;20083;-72
2021/10/19 07:26:09;;;;;;;28.80;17.63;;;11.10;99.90;;;10.36;100.00;98145.78;5039722;28;20077;-71
2021/10/19 07:28:36;;;;;;;29.38;18.23;;;11.10;99.90;;;10.38;100.00;98145.75;5043537;28;20136;-72
2021/10/19 07:31:03;;;;;;;29.83;19.75;;;11.20;99.90;;;10.43;100.00;98156.81;5040622;28;20125;-70
2021/10/19 07:33:30;;;;;;;25.05;17.02;;;11.20;99.90;;;10.48;100.00;98162.69;5043956;28;20086;-72
2021/10/19 07:35:57;;;;;;;27.33;18.13;;;11.20;99.90;;;10.52;100.00;98173.84;5041102;28;20124;-71
2021/10/19 07:38:26;;;;;;;30.83;19.58;;;11.30;99.90;;;10.45;100.00;98163.66;5036281;28;20488;-69
2021/10/19 07:40:53;;;;;;;36.30;22.10;;;11.30;99.90;;;10.49;100.00;98155.75;5042663;28;20133;-72
2021/10/19 07:43:20;;;;;;;34.05;21.40;;;11.40;99.90;;;10.53;100.00;98153.00;5039457;28;20077;-72
2021/10/19 07:45:48;;;;;;;38.60;22.90;;;11.40;99.90;;;10.55;100.00;98169.38;5040714;28;20079;-72
2021/10/19 07:48:15;;;;;;;38.08;23.00;;;11.50;99.90;;;10.62;100.00;98164.84;5040898;28;20128;-72
2021/10/19 07:50:46;;;;;;;31.00;20.63;;;11.50;99.90;;;10.71;100.00;98166.28;5043131;28;20055;-71
2021/10/19 07:53:15;;;;;;;33.60;21.40;;;11.50;99.90;;;10.76;100.00;98165.22;5037492;28;20130;-72
2021/10/19 07:55:44;;;;;;;33.40;21.10;;;11.50;99.90;;;10.74;100.00;98173.94;5039841;28;20136;-72
2021/10/19 07:58:11;;;;;;;41.63;25.23;;;11.60;99.90;;;10.81;100.00;98168.53;5043893;28;20073;-72
2021/10/19 08:00:38;;;;;;;30.58;22.10;;;11.70;99.90;;;10.89;100.00;98171.69;5044071;28;20087;-72
2021/10/19 08:03:05;;;;;;;34.92;22.60;;;11.70;99.90;;;10.85;100.00;98177.88;5037056;28;20413;-72
2021/10/19 08:05:33;;;;;;;42.83;24.48;;;11.70;99.90;;;10.89;100.00;98173.44;5047766;28;20095;-71
2021/10/19 08:08:12;;;;;;;38.92;25.17;;;11.70;99.90;;;10.96;100.00;98174.06;5046642;28;20147;-72
2021/10/19 08:10:44;;;;;;;36.55;24.92;;;11.80;99.90;;;11.08;100.00;98169.31;5040520;28;20456;-72
2021/10/19 08:13:11;;;;;;;35.00;22.30;;;11.90;99.90;;;11.15;100.00;98184.66;5042024;28;20178;-72
2021/10/19 08:15:40;;;;;;;29.42;20.30;;;11.90;99.90;;;11.25;100.00;98162.66;5040029;28;20132;-72
2021/10/19 08:18:08;;;;;;;34.45;21.85;;;12.00;99.90;;;11.34;100.00;98169.28;5046650;28;20044;-72
2021/10/19 08:20:36;;;;;;;27.60;18.67;;;12.10;99.90;;;11.48;100.00;98160.06;5046349;28;20159;-72
2021/10/19 08:23:03;;;;;;;27.95;19.10;;;12.20;99.90;;;11.48;100.00;98165.28;5041644;28;20049;-72
2021/10/19 08:25:30;;;;;;;31.20;21.52;;;12.30;99.90;;;11.55;100.00;98152.91;5017305;28;20083;-72
2021/10/19 08:27:58;;;;;;;30.80;19.65;;;12.40;99.90;;;11.61;100.00;98155.28;5032505;28;20049;-72
2021/10/19 08:30:25;;;;;;;32.10;19.73;;;12.40;99.90;;;11.67;100.00;98162.81;5039800;28;20136;-72
2021/10/19 08:32:53;;;;;;;26.35;17.60;;;12.40;99.90;;;11.74;100.00;98160.84;5037477;28;20077;-71
2021/10/19 08:35:23;;;;;;;25.33;17.17;;;12.50;99.90;;;11.76;100.00;98158.19;5050317;28;20190;-72
2021/10/19 08:37:52;;;;;;;25.17;17.17;;;12.50;99.90;;;11.75;100.00;98153.91;5035240;28;20077;-72
2021/10/19 08:40:21;;;;;;;21.98;15.70;;;12.60;99.90;;;11.78;100.00;98156.38;5036632;28;20498;-72
2021/10/19 08:42:51;;;;;;;22.77;15.10;;;12.70;99.90;;;11.86;100.00;98164.72;5048250;28;20053;-72
2021/10/19 08:45:20;;;;;;;24.63;16.27;;;12.70;99.90;;;11.89;100.00;98162.91;5033075;28;20502;-72
2021/10/19 08:47:48;;;;;;;22.25;15.73;;;12.70;99.90;;;11.83;100.00;98165.69;5044698;28;20461;-72
2021/10/19 08:50:20;;;;;;;25.15;15.35;;;12.80;99.90;;;12.02;100.00;98157.19;5043257;28;20081;-72
2021/10/19 08:52:47;;;;;;;21.90;15.13;;;12.90;99.90;;;12.00;100.00;98161.66;5046182;28;20045;-72
2021/10/19 08:55:14;;;;;;;24.00;14.38;;;12.90;99.90;;;11.99;100.00;98168.59;5044299;28;20405;-72
2021/10/19 08:57:42;;;;;;;22.25;14.65;;;13.00;99.90;;;12.13;100.00;98168.03;5038141;28;20087;-72
2021/10/19 09:00:10;;;;;;;19.23;13.18;;;13.10;99.90;;;12.17;100.00;98164.41;5039719;28;20187;-72
2021/10/19 09:02:49;;;;;;;18.45;12.50;;;13.10;99.90;;;12.05;100.00;98172.72;5043786;28;20087;-72
2021/10/19 09:05:24;;;;;;;17.65;12.38;;;;;;;12.09;100.00;98146.50;5041240;28;20049;-72
2021/10/19 09:08:09;;;;;;;17.65;12.85;;;13.20;99.90;;;12.24;99.95;98149.41;5042572;28;20276;-72
2021/10/19 09:10:39;;;;;;;18.33;12.27;;;13.30;99.90;;;12.40;98.66;98147.88;5036004;28;20040;-72
2021/10/19 09:13:16;;;;;;;19.17;12.65;;;13.20;99.90;;;12.22;99.32;98165.06;5038577;28;20091;-73
2021/10/19 09:15:46;;;;;;;19.23;12.63;;;13.30;99.90;;;12.21;98.96;98165.16;5030514;28;20088;-72
2021/10/19 09:18:17;;;;;;;17.33;10.52;;;13.40;99.90;;;12.32;98.17;98157.75;5035742;28;20116;-72
2021/10/19 09:20:51;;;;;;;15.70;11.43;;;13.40;99.90;;;12.50;97.99;98162.22;5035834;28;20088;-70
2021/10/19 09:23:21;;;;;;;15.95;10.05;;;13.50;99.90;;;12.47;97.33;98164.94;5033140;28;20076;-72
2021/10/19 09:25:53;;;;;;;14.70;10.63;;;13.50;99.90;;;12.64;97.70;98163.41;5037092;28;20047;-72
2021/10/19 09:28:39;;;;;;;17.20;10.85;;;13.60;99.90;;;12.73;96.75;98169.09;5043596;28;20045;-72
2021/10/19 09:31:07;;;;;;;14.38;10.25;;;13.70;99.90;;;12.90;95.74;98173.56;5033737;28;20497;-70
2021/10/19 09:33:35;;;;;;;15.52;10.48;;;13.80;99.90;;;12.77;95.78;98175.88;5039083;28;20052;-72
2021/10/19 09:36:02;;;;;;;16.30;9.88;;;13.90;99.90;;;12.75;95.97;98174.25;5048180;28;20545;-72
2021/10/19 09:38:29;;;;;;;16.77;10.30;;;14.00;99.90;;;12.97;96.24;98161.97;5040513;28;20091;-72
2021/10/19 09:40:58;;;;;;;19.77;10.07;;;14.10;99.90;;;12.71;95.17;98178.72;5042420;28;20131;-72
2021/10/19 09:43:30;;;;;;;14.00;9.40;;;14.10;99.90;;;13.02;95.70;98177.41;5049881;28;20076;-72
2021/10/19 09:46:03;;;;;;;16.98;9.75;;;14.10;99.90;;;13.16;95.02;98161.19;5037912;28;20049;-72
2021/10/19 09:48:33;;;;;;;13.43;9.43;;;14.20;99.90;;;13.01;94.59;98169.66;5043402;28;20085;-72
2021/10/19 09:51:02;;;;;;;11.70;8.43;;;14.30;99.90;;;13.08;92.82;98163.28;5049167;28;20053;-72
2021/10/19 09:53:30;;;;;;;15.27;8.68;;;14.30;99.90;;;13.04;92.84;98167.75;5034625;28;20573;-72
2021/10/19 09:55:58;;;;;;;14.57;8.88;;;14.40;99.90;;;13.18;92.57;98165.44;5040492;28;20073;-70
2021/10/19 09:58:25;;;;;;;13.30;8.35;;;14.50;99.90;;;12.94;92.38;98161.25;5059763;28;20136;-72
2021/10/19 10:00:53;;;;;;;14.57;8.00;;;14.50;99.90;;;13.25;91.10;98152.09;5050555;28;20124;-73
2021/10/19 10:03:22;;;;;;;12.35;7.80;;;14.50;99.90;;;13.10;90.55;98159.69;5043355;28;20489;-73
2021/10/19 10:05:50;;;;;;;11.75;7.78;;;14.50;99.90;;;13.22;89.95;98162.69;5061194;28;20044;-72
2021/10/19 10:08:20;;;;;;;11.18;7.93;;;14.50;99.90;;;13.21;90.08;98161.84;5044691;28;20045;-72
2021/10/19 10:10:55;;;;;;;12.05;7.53;;;14.60;99.90;;;13.55;89.33;98145.56;5048756;28;20551;-72
2021/10/19 10:13:23;;;;;;;14.10;7.18;;;14.70;99.90;;;13.55;87.28;98157.75;5047218;28;20093;-72
2021/10/19 10:15:52;;;;;;;11.68;7.68;;;14.80;99.90;;;13.67;88.32;98156.34;5040543;28;20050;-72
2021/10/19 10:18:33;;;;;;;10.65;7.65;;;15.00;99.90;;;13.74;87.13;98144.72;5041714;28;20143;-70
2021/10/19 10:21:15;;;;;;;11.15;7.88;;;15.10;99.90;;;13.94;87.27;98155.06;5042145;28;20132;-72
2021/10/19 10:23:43;;;;;;;10.27;7.35;;;15.30;99.90;;;13.99;86.47;98160.06;5045968;28;20084;-70
2021/10/19 10:26:26;;;;;;;10.45;6.97;;;15.50;99.90;;;13.98;85.71;98154.00;5036858;28;20132;-70
2021/10/19 10:29:11;;;;;;;11.55;7.70;;;15.50;99.90;;;14.04;86.12;98160.69;5037425;28;20053;-70
2021/10/19 10:31:52;;;;;;;11.23;7.28;;;15.50;99.90;;;14.21;86.24;98150.31;5030911;28;20183;-70
2021/10/19 10:34:30;;;;;;;9.55;7.60;;;15.70;99.90;;;14.21;85.25;98154.69;5038180;28;20049;-70
2021/10/19 10:37:13;;;;;;;11.50;8.20;;;15.60;99.90;;;14.17;85.88;98153.97;5048797;28;20128;-70